Etusivu
METAR-TAF:

METAR-TAF

Lentoasemat :

Changin kansainvälinen lentoasema

Singapore, Singapore

Leveyspiiri: 01-22N, Pituuspiiri: 103-59E, korkeus merenpinnasta: 5 m

Tämänhetkinen sää

Tämä raportti tehtiin 38 minuuttia sitten, kello 16.00 UTC
Tuuli 5 kn pohjoisesta
Lämpötila 26°C
Kosteus 84%
Ilmanpaine 1013 hPa
Näkyvyys 10 km tai enemmän
Muutamia pilviä 1800 ft:n korkeudessa
Hajonneita pilviä 30000 ft:n korkeudessa

METAR: WSSS 081600Z 35005KT 9999 FEW018 BKN300 26/23 Q1013 NOSIG

Aika: 00:38 (16:38 UTC)

Sääennuste

Tämä raportti tehtiin 5 tuntia ja 38 minuuttia sitten, kello 11.00 UTC
Ennuste voimassa 08. päivästä klo 12 UTC - 09. päivään klo 18 UTC
Tuuli 10 kn pohjoisesta
Näkyvyys 10 km tai enemmän
Muutamia pilviä 1500 ft:n korkeudessa
Hajanaisia pilviä 2000 ft:n korkeudessa

TAF: WSSS 081100Z 0812/0918 01010KT 9999 FEW015 SCT020

Säähavainnot ja -ennusteet yli 4000 lentoasemalta (METAR- ja TAF-raportit).

Käytössä olevat sääasemat on merkitty karttaan keltaisilla ja punaisilla pisteillä.

Aseta hiiri pisteen päälle nähdäksesi sääaseman nimen.

Klikkaa sitten nähdäksesi säähavainnot ja -ennusteet.

Kartan vaihtaminen: klikkaa mustalla rastilla varustettuja vihreitä pisteitä, niin voit zoomata sisään; viivalla varustettua vihreää pistettä, niin voit zoomata ulos tai vihreitä nuolia, niin pääset viereisille kartoille.


METAR-TAF: